createdAt,value
2019-05-12T00:01:18.799Z,5.39
2019-05-12T00:03:51.341Z,5.34
2019-05-12T00:06:22.340Z,5.35
2019-05-12T00:08:53.770Z,5.31
2019-05-12T00:11:25.588Z,5.34
2019-05-12T00:13:58.615Z,5.30
2019-05-12T00:16:29.548Z,5.26
2019-05-12T00:19:00.590Z,5.19
2019-05-12T00:21:32.043Z,5.21
2019-05-12T00:24:11.658Z,5.24
2019-05-12T00:26:43.928Z,5.20
2019-05-12T00:29:14.694Z,5.24
2019-05-12T00:31:47.622Z,5.16
2019-05-12T00:34:18.550Z,5.16
2019-05-12T00:36:50.651Z,5.09
2019-05-12T00:39:21.718Z,5.08
2019-05-12T00:41:52.499Z,5.13
2019-05-12T00:44:23.806Z,5.13
2019-05-12T00:46:54.810Z,5.14
2019-05-12T00:49:25.851Z,5.14
2019-05-12T00:51:58.675Z,5.14
2019-05-12T00:54:29.582Z,5.14
2019-05-12T00:57:00.785Z,5.13
2019-05-12T00:59:31.853Z,5.15
2019-05-12T01:02:03.606Z,5.09
2019-05-12T01:04:34.411Z,5.05
2019-05-12T01:07:05.255Z,5.03
2019-05-12T01:09:36.038Z,5.12
2019-05-12T01:12:07.953Z,5.06
2019-05-12T01:14:38.986Z,5.06
2019-05-12T01:17:09.752Z,5.06
2019-05-12T01:19:40.957Z,5.04
2019-05-12T01:22:12.035Z,5.10
2019-05-12T01:24:43.048Z,5.14
2019-05-12T01:27:14.085Z,5.02
2019-05-12T01:29:44.872Z,5.03
2019-05-12T01:32:26.015Z,4.98
2019-05-12T01:34:57.773Z,5.02
2019-05-12T01:37:28.592Z,4.94
2019-05-12T01:40:00.082Z,4.90
2019-05-12T01:42:31.177Z,4.89
2019-05-12T01:45:02.075Z,4.85
2019-05-12T01:47:32.981Z,4.84
2019-05-12T01:50:05.691Z,4.79
2019-05-12T01:52:38.618Z,4.76
2019-05-12T01:55:09.741Z,4.82
2019-05-12T01:57:40.756Z,4.78
2019-05-12T02:00:12.251Z,4.78
2019-05-12T02:02:43.273Z,4.67
2019-05-12T02:05:14.337Z,4.64
2019-05-12T02:07:52.642Z,4.63
2019-05-12T02:10:23.755Z,4.57
2019-05-12T02:12:54.751Z,4.68
2019-05-12T02:15:27.686Z,4.62
2019-05-12T02:17:59.117Z,4.57
2019-05-12T02:20:30.174Z,4.56
2019-05-12T02:23:01.184Z,4.50
2019-05-12T02:25:32.288Z,4.51
2019-05-12T02:28:03.385Z,4.41
2019-05-12T02:30:34.156Z,4.42
2019-05-12T02:33:05.517Z,4.38
2019-05-12T02:35:36.353Z,4.30
2019-05-12T02:38:07.120Z,4.36
2019-05-12T02:40:37.917Z,4.37
2019-05-12T02:43:08.933Z,4.36
2019-05-12T02:45:39.985Z,4.31
2019-05-12T02:48:14.149Z,4.28
2019-05-12T02:50:45.192Z,4.20
2019-05-12T02:53:16.187Z,4.19
2019-05-12T02:55:48.304Z,4.21
2019-05-12T02:58:20.511Z,4.18
2019-05-12T03:00:54.755Z,4.17
2019-05-12T03:03:27.550Z,4.16
2019-05-12T03:05:59.348Z,4.15
2019-05-12T03:08:34.890Z,4.15
2019-05-12T03:11:06.218Z,4.14
2019-05-12T03:13:37.519Z,4.21
2019-05-12T03:16:08.779Z,4.32
2019-05-12T03:18:40.292Z,4.36
2019-05-12T03:21:11.154Z,4.40
2019-05-12T03:23:44.667Z,4.43
2019-05-12T03:26:15.307Z,4.38
2019-05-12T03:28:46.342Z,4.47
2019-05-12T03:31:23.601Z,4.52
2019-05-12T03:33:54.181Z,4.66
2019-05-12T03:36:32.130Z,4.69
2019-05-12T03:38:56.688Z,4.73
2019-05-12T03:41:27.459Z,4.77
2019-05-12T03:43:59.443Z,4.75
2019-05-12T03:46:30.228Z,4.79
2019-05-12T03:49:04.885Z,4.81
2019-05-12T03:51:35.178Z,4.88
2019-05-12T03:54:06.527Z,4.96
2019-05-12T03:56:37.545Z,5.01
2019-05-12T03:59:08.600Z,5.09
2019-05-12T04:01:40.223Z,5.19
2019-05-12T04:04:11.213Z,5.28
2019-05-12T04:06:45.041Z,5.29
2019-05-12T04:09:15.691Z,5.45
2019-05-12T04:11:47.215Z,5.53
2019-05-12T04:14:18.494Z,5.62
2019-05-12T04:16:49.335Z,5.67
2019-05-12T04:19:20.329Z,5.67
2019-05-12T04:21:51.177Z,5.80
2019-05-12T04:24:24.935Z,5.82
2019-05-12T04:26:55.328Z,5.89
2019-05-12T04:29:26.354Z,5.92
2019-05-12T04:31:57.663Z,6.01
2019-05-12T04:34:28.657Z,6.05
2019-05-12T04:36:59.677Z,6.08
2019-05-12T04:39:33.959Z,6.14
2019-05-12T04:42:05.311Z,6.19
2019-05-12T04:44:36.433Z,6.25
2019-05-12T04:47:08.442Z,6.35
2019-05-12T04:49:39.486Z,6.39
2019-05-12T04:52:10.269Z,6.51
2019-05-12T04:54:44.311Z,6.47
2019-05-12T04:57:14.876Z,6.50
2019-05-12T04:59:48.788Z,6.45
2019-05-12T05:02:19.559Z,6.63
2019-05-12T05:04:50.711Z,6.65
2019-05-12T05:07:24.209Z,6.65
2019-05-12T05:09:55.028Z,6.64
2019-05-12T05:12:25.947Z,6.72
2019-05-12T05:14:56.711Z,6.76
2019-05-12T05:17:27.820Z,6.76
2019-05-12T05:19:58.834Z,6.79
2019-05-12T05:22:29.685Z,6.84
2019-05-12T05:25:00.935Z,6.84
2019-05-12T05:27:34.052Z,6.81
2019-05-12T05:30:05.117Z,6.84
2019-05-12T05:32:35.965Z,6.90
2019-05-12T05:35:07.884Z,6.96
2019-05-12T05:37:41.527Z,6.89
2019-05-12T05:40:13.880Z,6.98
2019-05-12T05:42:44.149Z,7.00
2019-05-12T05:45:19.558Z,6.95
2019-05-12T05:47:49.029Z,6.96
2019-05-12T05:50:25.177Z,7.11
2019-05-12T05:52:54.261Z,7.18
2019-05-12T05:55:26.013Z,7.21
2019-05-12T05:57:59.907Z,7.33
2019-05-12T06:00:29.303Z,7.21
2019-05-12T06:03:00.094Z,7.23
2019-05-12T06:05:31.159Z,7.28
2019-05-12T06:08:04.094Z,7.30
2019-05-12T06:10:39.864Z,7.45
2019-05-12T06:13:07.419Z,7.46
2019-05-12T06:15:40.811Z,7.47
2019-05-12T06:18:13.429Z,7.57
2019-05-12T06:20:43.902Z,7.63
2019-05-12T06:23:15.240Z,7.73
2019-05-12T06:25:51.312Z,7.65
2019-05-12T06:28:18.804Z,7.60
2019-05-12T06:30:50.389Z,7.74
2019-05-12T06:33:24.801Z,7.88
2019-05-12T06:35:54.394Z,7.88
2019-05-12T06:38:25.348Z,7.89
2019-05-12T06:40:56.094Z,8.05
2019-05-12T06:43:29.043Z,8.10
2019-05-12T06:45:59.572Z,8.23
2019-05-12T06:48:33.090Z,8.35
2019-05-12T06:51:04.122Z,8.36
2019-05-12T06:53:34.864Z,8.57
2019-05-12T06:56:09.450Z,8.51
2019-05-12T06:58:38.412Z,8.49
2019-05-12T07:01:16.695Z,8.37
2019-05-12T07:03:44.033Z,8.38
2019-05-12T07:06:19.674Z,8.50
2019-05-12T07:09:01.323Z,8.47
2019-05-12T07:11:20.731Z,8.45
2019-05-12T07:14:03.995Z,8.45
2019-05-12T07:16:30.085Z,8.49
2019-05-12T07:18:56.981Z,8.66
2019-05-12T07:21:28.126Z,8.74
2019-05-12T07:24:00.542Z,8.75
2019-05-12T07:26:33.908Z,8.75
2019-05-12T07:29:04.824Z,8.96
2019-05-12T07:31:35.847Z,9.01
2019-05-12T07:34:07.879Z,8.81
2019-05-12T07:36:39.203Z,8.75
2019-05-12T07:39:10.289Z,8.95
2019-05-12T07:41:42.383Z,8.89
2019-05-12T07:44:15.042Z,8.82
2019-05-12T07:46:49.418Z,8.70
2019-05-12T07:49:22.546Z,8.63
2019-05-12T07:51:51.206Z,8.46
2019-05-12T07:54:23.606Z,8.43
2019-05-12T07:56:54.912Z,8.57
2019-05-12T07:59:34.611Z,8.57
2019-05-12T08:01:58.825Z,8.66
2019-05-12T08:04:31.740Z,8.81
2019-05-12T08:07:03.933Z,8.49
2019-05-12T08:09:36.550Z,8.50
2019-05-12T08:12:13.223Z,8.74
2019-05-12T08:14:40.224Z,8.64
2019-05-12T08:17:16.841Z,8.76
2019-05-12T08:19:44.345Z,8.77
2019-05-12T08:22:18.842Z,8.61
2019-05-12T08:24:48.336Z,8.52
2019-05-12T08:27:19.389Z,8.58
2019-05-12T08:29:52.431Z,8.59
2019-05-12T08:32:23.444Z,8.81
2019-05-12T08:34:55.329Z,8.81
2019-05-12T08:37:26.237Z,8.88
2019-05-12T08:40:03.154Z,8.72
2019-05-12T08:42:30.021Z,8.98
2019-05-12T08:45:03.892Z,9.04
2019-05-12T08:47:38.667Z,9.01
2019-05-12T08:50:06.659Z,9.09
2019-05-12T08:52:41.315Z,9.24
2019-05-12T08:55:10.000Z,9.33
2019-05-12T08:57:49.241Z,9.39
2019-05-12T09:00:14.734Z,9.67
2019-05-12T09:02:50.447Z,9.69
2019-05-12T09:05:18.452Z,9.34
2019-05-12T09:07:49.511Z,9.19
2019-05-12T09:10:20.284Z,9.26
2019-05-12T09:12:51.109Z,9.40
2019-05-12T09:15:23.949Z,9.42
2019-05-12T09:17:57.062Z,9.58
2019-05-12T09:20:27.513Z,9.52
2019-05-12T09:23:00.794Z,9.68
2019-05-12T09:25:33.841Z,9.69
2019-05-12T09:28:04.805Z,9.77
2019-05-12T09:30:40.098Z,9.87
2019-05-12T09:33:08.068Z,9.87
2019-05-12T09:35:39.427Z,10.00
2019-05-12T09:38:11.364Z,10.16
2019-05-12T09:40:43.785Z,10.09
2019-05-12T09:43:14.834Z,10.19
2019-05-12T09:45:52.104Z,10.17
2019-05-12T09:48:18.065Z,10.14
2019-05-12T09:50:51.486Z,10.29
2019-05-12T09:53:23.698Z,10.20
2019-05-12T09:55:58.521Z,10.16
2019-05-12T09:58:28.357Z,10.37
2019-05-12T10:00:59.539Z,10.53
2019-05-12T10:03:35.536Z,10.80
2019-05-12T10:06:03.736Z,10.58
2019-05-12T10:08:35.719Z,10.61
2019-05-12T10:11:10.347Z,10.73
2019-05-12T10:13:40.035Z,10.70
2019-05-12T10:16:13.312Z,10.73
2019-05-12T10:18:51.279Z,10.59
2019-05-12T10:21:17.607Z,11.17
2019-05-12T10:23:51.482Z,11.27
2019-05-12T10:26:22.076Z,11.91
2019-05-12T10:28:58.130Z,12.45
2019-05-12T10:31:29.667Z,12.22
2019-05-12T10:34:16.786Z,12.43
2019-05-12T10:36:49.127Z,12.52
2019-05-12T10:39:20.178Z,11.87
2019-05-12T10:41:51.052Z,11.79
2019-05-12T10:44:22.038Z,12.02
2019-05-12T10:46:55.562Z,12.28
2019-05-12T10:49:26.329Z,12.79
2019-05-12T10:51:57.581Z,12.92
2019-05-12T10:54:28.434Z,12.98
2019-05-12T10:56:59.221Z,12.71
2019-05-12T10:59:33.121Z,12.71
2019-05-12T11:02:03.514Z,12.59
2019-05-12T11:04:38.891Z,12.85
2019-05-12T11:07:07.332Z,12.78
2019-05-12T11:09:38.114Z,12.62
2019-05-12T11:12:09.233Z,12.79
2019-05-12T11:14:40.242Z,12.63
2019-05-12T11:17:13.625Z,12.76
2019-05-12T11:19:47.196Z,12.96
2019-05-12T11:22:19.311Z,12.96
2019-05-12T11:24:52.745Z,12.83
2019-05-12T11:27:24.021Z,12.77
2019-05-12T11:29:54.929Z,12.86
2019-05-12T11:32:28.957Z,12.75
2019-05-12T11:34:58.158Z,12.40
2019-05-12T11:37:29.927Z,12.29
2019-05-12T11:40:00.939Z,12.80
2019-05-12T11:42:33.576Z,13.45
2019-05-12T11:45:04.760Z,13.50
2019-05-12T11:47:37.357Z,13.47
2019-05-12T11:50:10.023Z,13.34
2019-05-12T11:52:41.082Z,13.33
2019-05-12T11:55:13.483Z,13.34
2019-05-12T11:57:44.532Z,13.37
2019-05-12T12:00:18.257Z,13.65
2019-05-12T12:02:49.372Z,13.79
2019-05-12T12:05:20.200Z,13.22
2019-05-12T12:07:52.934Z,13.85
2019-05-12T12:10:23.962Z,13.96
2019-05-12T12:12:54.969Z,13.40
2019-05-12T12:15:30.157Z,13.40
2019-05-12T12:18:03.972Z,13.86
2019-05-12T12:20:33.520Z,14.79
2019-05-12T12:23:10.807Z,14.62
2019-05-12T12:25:36.025Z,14.71
2019-05-12T12:28:06.861Z,14.74
2019-05-12T12:30:37.703Z,15.04
2019-05-12T12:33:08.950Z,14.92
2019-05-12T12:35:40.924Z,14.75
2019-05-12T12:38:14.139Z,14.10
2019-05-12T12:40:44.395Z,14.11
2019-05-12T12:43:15.457Z,14.18
2019-05-12T12:46:01.086Z,14.06
2019-05-12T12:48:33.361Z,13.84
2019-05-12T12:51:04.514Z,14.34
2019-05-12T12:53:35.620Z,14.57
2019-05-12T12:56:06.631Z,14.73
2019-05-12T12:58:37.634Z,15.51
2019-05-12T13:01:15.729Z,15.53
2019-05-12T13:03:43.411Z,15.79
2019-05-12T13:06:16.916Z,15.30
2019-05-12T13:08:46.764Z,15.34
2019-05-12T13:11:32.148Z,15.50
2019-05-12T13:13:50.426Z,16.21
2019-05-12T13:16:21.249Z,16.23
2019-05-12T13:18:53.839Z,16.63
2019-05-12T13:21:25.038Z,16.53
2019-05-12T13:23:57.274Z,16.34
2019-05-12T13:26:28.035Z,16.55
2019-05-12T13:28:58.801Z,16.44
2019-05-12T13:31:29.567Z,16.70
2019-05-12T13:34:03.627Z,16.75
2019-05-12T13:36:37.470Z,16.88
2019-05-12T13:39:11.562Z,16.60
2019-05-12T13:41:39.994Z,16.85
2019-05-12T13:44:13.486Z,16.85
2019-05-12T13:46:48.543Z,16.41
2019-05-12T13:49:15.942Z,16.75
2019-05-12T13:51:48.453Z,17.03
2019-05-12T13:54:20.244Z,17.16
2019-05-12T13:56:53.496Z,16.94
2019-05-12T13:59:25.513Z,16.74
2019-05-12T14:01:56.418Z,17.09
2019-05-12T14:04:28.029Z,17.27
2019-05-12T14:07:00.227Z,17.50
2019-05-12T14:09:31.266Z,17.37
2019-05-12T14:12:04.345Z,16.90
2019-05-12T14:14:34.994Z,17.08
2019-05-12T14:17:05.760Z,16.72
2019-05-12T14:19:37.307Z,16.37
2019-05-12T14:22:15.493Z,16.59
2019-05-12T14:24:44.429Z,16.81
2019-05-12T14:27:18.991Z,16.46
2019-05-12T14:29:47.229Z,16.06
2019-05-12T14:32:19.236Z,16.39
2019-05-12T14:34:51.084Z,16.53
2019-05-12T14:37:24.307Z,16.83
2019-05-12T14:39:55.246Z,16.64
2019-05-12T14:42:34.871Z,15.95
2019-05-12T14:44:59.720Z,15.94
2019-05-12T14:47:30.948Z,15.78
2019-05-12T14:50:03.965Z,15.39
2019-05-12T14:52:34.913Z,15.08
2019-05-12T14:55:06.173Z,15.26
2019-05-12T14:57:39.284Z,15.48
2019-05-12T15:00:11.223Z,15.59
2019-05-12T15:02:43.838Z,15.71
2019-05-12T15:05:15.834Z,15.51
2019-05-12T15:07:57.395Z,15.35
2019-05-12T15:10:19.397Z,15.08
2019-05-12T15:12:50.657Z,14.91
2019-05-12T15:15:21.657Z,14.90
2019-05-12T15:17:55.057Z,15.41
2019-05-12T15:20:25.429Z,15.52
2019-05-12T15:22:56.421Z,15.51
2019-05-12T15:25:29.279Z,15.54
2019-05-12T15:28:00.245Z,15.03
2019-05-12T15:30:33.592Z,14.91
2019-05-12T15:33:04.661Z,14.87
2019-05-12T15:35:35.394Z,14.95
2019-05-12T15:38:09.440Z,15.22
2019-05-12T15:40:38.774Z,15.19
2019-05-12T15:43:09.788Z,14.92
2019-05-12T15:45:43.482Z,15.10
2019-05-12T15:48:14.508Z,14.74
2019-05-12T15:50:46.130Z,14.60
2019-05-12T15:53:22.081Z,14.79
2019-05-12T15:55:50.196Z,14.70
2019-05-12T15:58:21.186Z,14.48
2019-05-12T16:00:54.489Z,14.41
2019-05-12T16:03:26.590Z,14.31
2019-05-12T16:06:01.240Z,14.21
2019-05-12T16:08:30.043Z,14.00
2019-05-12T16:11:01.071Z,13.93
2019-05-12T16:13:33.792Z,14.15
2019-05-12T16:16:06.674Z,14.68
2019-05-12T16:18:40.432Z,14.41
2019-05-12T16:21:09.678Z,14.28
2019-05-12T16:23:40.621Z,14.46
2019-05-12T16:26:14.690Z,14.46
2019-05-12T16:28:44.443Z,14.88
2019-05-12T16:31:15.285Z,15.18
2019-05-12T16:33:46.043Z,15.51
2019-05-12T16:36:16.863Z,15.81
2019-05-12T16:38:50.088Z,15.70
2019-05-12T16:41:28.011Z,15.14
2019-05-12T16:43:53.783Z,14.74
2019-05-12T16:46:25.058Z,14.28
2019-05-12T16:48:57.016Z,14.01
2019-05-12T16:51:29.350Z,13.58
2019-05-12T16:54:00.350Z,13.27
2019-05-12T16:56:33.769Z,13.10
2019-05-12T16:59:07.206Z,12.80
2019-05-12T17:01:36.922Z,12.80
2019-05-12T17:04:07.922Z,12.65
2019-05-12T17:06:39.060Z,13.44
2019-05-12T17:09:10.066Z,14.80
2019-05-12T17:11:47.323Z,15.28
2019-05-12T17:14:13.455Z,14.83
2019-05-12T17:16:46.736Z,14.29
2019-05-12T17:19:16.963Z,13.75
2019-05-12T17:21:49.477Z,13.75
2019-05-12T17:24:20.770Z,13.35
2019-05-12T17:26:52.798Z,13.14
2019-05-12T17:29:24.374Z,12.89
2019-05-12T17:31:55.640Z,12.62
2019-05-12T17:34:27.249Z,12.26
2019-05-12T17:37:00.550Z,12.22
2019-05-12T17:39:35.799Z,12.17
2019-05-12T17:42:04.018Z,11.92
2019-05-12T17:44:36.975Z,11.87
2019-05-12T17:47:12.884Z,11.69
2019-05-12T17:49:40.217Z,11.57
2019-05-12T17:52:15.827Z,11.35
2019-05-12T17:54:44.300Z,11.22
2019-05-12T17:57:19.757Z,11.43
2019-05-12T17:59:48.574Z,11.34
2019-05-12T18:02:19.666Z,11.01
2019-05-12T18:04:53.362Z,11.07
2019-05-12T18:07:23.796Z,10.84
2019-05-12T18:09:56.727Z,11.04
2019-05-12T18:12:39.538Z,10.76
2019-05-12T18:14:59.713Z,10.73
2019-05-12T18:17:30.493Z,10.61
2019-05-12T18:20:03.904Z,10.43
2019-05-12T18:22:34.122Z,10.27
2019-05-12T18:25:05.218Z,10.12
2019-05-12T18:27:47.946Z,9.97
2019-05-12T18:30:08.889Z,9.80
2019-05-12T18:32:40.140Z,9.65
2019-05-12T18:35:13.407Z,9.53
2019-05-12T18:37:43.723Z,9.43
2019-05-12T18:40:14.966Z,9.35
2019-05-12T18:42:45.988Z,9.23
2019-05-12T18:45:18.325Z,9.10
2019-05-12T18:47:49.113Z,8.95
2019-05-12T18:50:27.206Z,8.87
2019-05-12T18:52:53.345Z,8.73
2019-05-12T18:55:29.343Z,8.66
2019-05-12T18:57:57.289Z,8.62
2019-05-12T19:00:28.033Z,8.47
2019-05-12T19:02:59.590Z,8.32
2019-05-12T19:05:31.683Z,8.26
2019-05-12T19:08:03.660Z,8.22
2019-05-12T19:10:38.674Z,8.24
2019-05-12T19:13:07.644Z,8.20
2019-05-12T19:15:38.508Z,8.12
2019-05-12T19:18:09.407Z,8.17
2019-05-12T19:20:40.483Z,8.07
2019-05-12T19:23:13.614Z,8.04
2019-05-12T19:25:44.490Z,7.95
2019-05-12T19:28:15.505Z,7.95
2019-05-12T19:30:46.565Z,7.91
2019-05-12T19:33:17.333Z,8.38
2019-05-12T19:35:50.337Z,8.29
2019-05-12T19:38:21.120Z,8.29
2019-05-12T19:40:58.787Z,8.40
2019-05-12T19:43:24.821Z,8.35
2019-05-12T19:46:03.064Z,8.32
2019-05-12T19:48:35.111Z,8.37
2019-05-12T19:51:19.950Z,8.57
2019-05-12T19:53:35.790Z,8.37
2019-05-12T19:56:06.540Z,8.33
2019-05-12T19:58:37.311Z,8.32
2019-05-12T20:01:09.657Z,8.66
2019-05-12T20:03:43.951Z,8.66
2019-05-12T20:06:14.606Z,8.51
2019-05-12T20:08:45.683Z,8.39
2019-05-12T20:11:20.094Z,8.20
2019-05-12T20:13:49.950Z,8.11
2019-05-12T20:16:23.172Z,7.97
2019-05-12T20:18:57.658Z,7.97
2019-05-12T20:21:28.312Z,7.87
2019-05-12T20:23:58.471Z,7.76
2019-05-12T20:26:32.992Z,7.64
2019-05-12T20:29:04.591Z,7.54
2019-05-12T20:31:43.504Z,7.51
2019-05-12T20:34:10.962Z,7.51
2019-05-12T20:36:40.089Z,7.54
2019-05-12T20:39:17.039Z,7.40
2019-05-12T20:41:43.568Z,7.34
2019-05-12T20:44:17.005Z,7.29
2019-05-12T20:46:47.014Z,7.53
2019-05-12T20:49:20.347Z,7.58
2019-05-12T20:51:55.243Z,7.68
2019-05-12T20:54:23.963Z,7.61
2019-05-12T20:57:02.446Z,7.54
2019-05-12T20:59:28.508Z,7.54
2019-05-12T21:01:59.449Z,7.49
2019-05-12T21:04:31.918Z,7.47
2019-05-12T21:07:04.546Z,7.29
2019-05-12T21:09:35.370Z,7.33
2019-05-12T21:12:06.192Z,7.21
2019-05-12T21:14:42.547Z,7.15
2019-05-12T21:17:14.561Z,7.15
2019-05-12T21:19:55.519Z,7.11
2019-05-12T21:22:15.482Z,7.04
2019-05-12T21:24:46.409Z,7.03
2019-05-12T21:27:19.866Z,7.15
2019-05-12T21:29:49.780Z,7.17
2019-05-12T21:32:20.822Z,7.13
2019-05-12T21:34:52.210Z,7.70
2019-05-12T21:37:25.424Z,7.50
2019-05-12T21:39:56.661Z,7.48
2019-05-12T21:42:27.455Z,7.62
2019-05-12T21:44:58.220Z,7.53
2019-05-12T21:47:34.015Z,7.41
2019-05-12T21:50:03.539Z,7.30
2019-05-12T21:52:38.985Z,7.37
2019-05-12T21:55:13.581Z,7.37
2019-05-12T21:57:40.044Z,7.28
2019-05-12T22:00:20.149Z,7.26
2019-05-12T22:02:53.401Z,7.25
2019-05-12T22:05:47.025Z,7.38
2019-05-12T22:07:58.960Z,7.24
2019-05-12T22:10:30.697Z,7.53
2019-05-12T22:13:07.367Z,7.62
2019-05-12T22:15:34.657Z,7.80
2019-05-12T22:18:06.068Z,7.86
2019-05-12T22:20:36.995Z,7.93
2019-05-12T22:23:11.898Z,8.05
2019-05-12T22:25:40.526Z,7.96
2019-05-12T22:28:13.505Z,7.80
2019-05-12T22:30:44.051Z,7.67
2019-05-12T22:33:15.470Z,7.64
2019-05-12T22:35:46.212Z,7.54
2019-05-12T22:38:21.118Z,7.47
2019-05-12T22:40:56.064Z,7.42
2019-05-12T22:43:23.755Z,7.39
2019-05-12T22:45:54.972Z,7.21
2019-05-12T22:48:29.700Z,7.32
2019-05-12T22:50:58.712Z,7.13
2019-05-12T22:53:30.273Z,7.24
2019-05-12T22:56:03.002Z,7.11
2019-05-12T22:58:34.266Z,7.19
2019-05-12T23:01:05.831Z,7.20
2019-05-12T23:03:36.875Z,7.02
2019-05-12T23:06:21.122Z,6.85
2019-05-12T23:08:47.145Z,6.71
2019-05-12T23:11:15.382Z,6.69
2019-05-12T23:13:46.360Z,6.60
2019-05-12T23:16:19.187Z,6.54
2019-05-12T23:18:49.949Z,6.51
2019-05-12T23:21:20.710Z,6.50
2019-05-12T23:23:57.530Z,6.39
2019-05-12T23:26:24.618Z,6.36
2019-05-12T23:28:55.605Z,6.43
2019-05-12T23:31:30.217Z,6.35
2019-05-12T23:33:59.069Z,6.28
2019-05-12T23:36:36.521Z,6.36
2019-05-12T23:39:04.764Z,6.38
2019-05-12T23:41:34.905Z,6.25
2019-05-12T23:44:06.224Z,6.18
2019-05-12T23:46:36.988Z,6.16
2019-05-12T23:49:07.747Z,6.14
2019-05-12T23:51:39.959Z,6.05
2019-05-12T23:54:11.024Z,5.99
2019-05-12T23:56:43.884Z,5.93
2019-05-12T23:59:14.259Z,5.98
